Terminal Aerodrome Forecast
Issued by NWS

Home | Current Version | Previous Version | Text Only | Print | Product List | Glossary On
Versions: 1 2 3 4 5 6 7 8 9 10 11 12 13 14 15
000
FTUS43 KAPX 281125
TAFMBL
TAF
KMBL 281125Z 2812/2912 00000KT P6SM VCSH FEW040 OVC100
     FM281500 26005KT P6SM VCSH OVC050
     FM281700 32006KT 6SM -SHRA OVC040
     FM281900 26006KT P6SM VCSH BKN040
     FM290000 25004KT P6SM BKN250
     FM290600 21005KT P6SM SCT090=

USA.gov is the U.S. government's official web portal to all federal, state and local government web resources and services.